createdAt,value
2017-07-28T00:00:17.805Z,99.90
2017-07-28T00:02:47.045Z,99.80
2017-07-28T00:05:15.916Z,99.90
2017-07-28T00:07:44.974Z,99.90
2017-07-28T00:10:14.907Z,99.80
2017-07-28T00:12:43.943Z,99.80
2017-07-28T00:15:12.606Z,99.80
2017-07-28T00:17:43.877Z,99.90
2017-07-28T00:20:13.383Z,99.90
2017-07-28T00:22:43.784Z,99.90
2017-07-28T00:25:13.127Z,99.90
2017-07-28T00:27:42.227Z,99.90
2017-07-28T00:30:11.133Z,99.90
2017-07-28T00:32:42.023Z,99.90
2017-07-28T00:35:11.580Z,99.90
2017-07-28T00:37:40.743Z,99.90
2017-07-28T00:40:11.693Z,99.90
2017-07-28T00:42:41.893Z,99.90
2017-07-28T00:45:12.059Z,99.90
2017-07-28T00:47:41.772Z,99.90
2017-07-28T00:50:12.595Z,99.90
2017-07-28T00:52:42.027Z,99.90
2017-07-28T00:55:11.307Z,99.90
2017-07-28T00:57:40.650Z,99.90
2017-07-28T01:00:11.004Z,99.90
2017-07-28T01:02:39.843Z,99.90
2017-07-28T01:05:10.645Z,99.90
2017-07-28T01:07:41.653Z,99.90
2017-07-28T01:10:11.497Z,99.90
2017-07-28T01:12:40.400Z,99.90
2017-07-28T01:15:09.168Z,99.90
2017-07-28T01:17:37.905Z,99.90
2017-07-28T01:20:06.293Z,99.90
2017-07-28T01:22:34.600Z,99.90
2017-07-28T01:25:03.769Z,99.90
2017-07-28T01:27:32.869Z,99.90
2017-07-28T01:30:01.255Z,99.90
2017-07-28T01:32:30.514Z,99.90
2017-07-28T01:34:58.843Z,99.90
2017-07-28T01:37:27.173Z,99.90
2017-07-28T01:39:55.849Z,99.90
2017-07-28T01:42:24.188Z,99.90
2017-07-28T01:44:52.586Z,99.90
2017-07-28T01:47:21.800Z,99.90
2017-07-28T01:49:51.363Z,99.90
2017-07-28T01:52:20.663Z,99.90
2017-07-28T01:54:49.459Z,99.90
2017-07-28T01:57:18.280Z,99.90
2017-07-28T01:59:46.826Z,99.90
2017-07-28T02:02:16.339Z,99.90
2017-07-28T02:04:45.871Z,99.90
2017-07-28T02:07:14.697Z,99.90
2017-07-28T02:09:45.062Z,99.90
2017-07-28T02:12:14.273Z,99.90
2017-07-28T02:14:43.167Z,99.90
2017-07-28T02:17:14.369Z,99.90
2017-07-28T02:19:43.217Z,99.90
2017-07-28T02:22:11.899Z,99.90
2017-07-28T02:24:41.029Z,99.90
2017-07-28T02:27:10.940Z,99.90
2017-07-28T02:29:41.274Z,99.90
2017-07-28T02:32:11.339Z,99.90
2017-07-28T02:34:40.788Z,99.90
2017-07-28T02:37:10.347Z,99.90
2017-07-28T02:39:40.370Z,99.90
2017-07-28T02:42:10.056Z,99.90
2017-07-28T02:44:39.705Z,99.90
2017-07-28T02:47:09.888Z,99.90
2017-07-28T02:49:38.591Z,99.90
2017-07-28T02:52:11.277Z,99.90
2017-07-28T02:54:41.299Z,99.90
2017-07-28T02:57:11.342Z,99.90
2017-07-28T02:59:40.526Z,99.90
2017-07-28T03:02:09.289Z,99.90
2017-07-28T03:04:39.216Z,99.90
2017-07-28T03:07:09.024Z,99.90
2017-07-28T03:09:37.580Z,99.90
2017-07-28T03:12:07.244Z,99.90
2017-07-28T03:14:35.593Z,99.90
2017-07-28T03:17:04.682Z,99.90
2017-07-28T03:19:34.115Z,99.90
2017-07-28T03:22:02.441Z,99.90
2017-07-28T03:24:30.777Z,99.90
2017-07-28T03:27:00.050Z,99.90
2017-07-28T03:29:28.380Z,99.90
2017-07-28T03:31:56.721Z,99.90
2017-07-28T03:34:25.711Z,99.90
2017-07-28T03:36:56.052Z,99.90
2017-07-28T03:39:24.533Z,99.90
2017-07-28T03:41:54.781Z,99.90
2017-07-28T03:44:23.323Z,99.90
2017-07-28T03:46:51.916Z,99.90
2017-07-28T03:49:20.940Z,99.90
2017-07-28T03:51:49.678Z,99.90
2017-07-28T03:54:19.853Z,99.90
2017-07-28T03:56:48.964Z,99.90
2017-07-28T03:59:18.547Z,99.90
2017-07-28T04:01:50.217Z,99.90
2017-07-28T04:04:19.158Z,99.90
2017-07-28T04:06:47.785Z,99.90
2017-07-28T04:09:16.674Z,99.90
2017-07-28T04:11:45.647Z,99.90
2017-07-28T04:14:14.446Z,99.90
2017-07-28T04:16:43.938Z,99.90
2017-07-28T04:19:12.654Z,99.90
2017-07-28T04:21:41.613Z,99.90
2017-07-28T04:24:12.534Z,99.90
2017-07-28T04:26:41.460Z,99.90
2017-07-28T04:29:10.989Z,99.90
2017-07-28T04:31:40.876Z,99.90
2017-07-28T04:34:10.443Z,99.90
2017-07-28T04:36:39.502Z,99.90
2017-07-28T04:39:08.381Z,99.90
2017-07-28T04:41:36.802Z,99.90
2017-07-28T04:44:05.109Z,99.90
2017-07-28T04:46:33.829Z,99.90
2017-07-28T04:49:02.136Z,99.90
2017-07-28T04:51:30.443Z,99.90
2017-07-28T04:53:59.843Z,99.90
2017-07-28T04:56:28.167Z,99.90
2017-07-28T04:58:58.576Z,99.90
2017-07-28T05:01:27.273Z,99.90
2017-07-28T05:03:55.610Z,99.90
2017-07-28T05:06:23.947Z,99.90
2017-07-28T05:08:52.654Z,99.90
2017-07-28T05:11:21.045Z,99.90
2017-07-28T05:13:49.449Z,99.90
2017-07-28T05:16:18.465Z,99.90
2017-07-28T05:18:46.948Z,99.90
2017-07-28T05:21:15.786Z,99.90
2017-07-28T05:23:44.906Z,99.90
2017-07-28T05:26:13.672Z,99.90
2017-07-28T05:28:43.275Z,99.90
2017-07-28T05:31:13.950Z,99.90
2017-07-28T05:33:42.988Z,99.90
2017-07-28T05:36:12.436Z,99.90
2017-07-28T05:38:42.087Z,99.90
2017-07-28T05:41:12.172Z,99.90
2017-07-28T05:43:41.309Z,99.90
2017-07-28T05:46:13.398Z,99.90
2017-07-28T05:48:42.859Z,99.90
2017-07-28T05:51:12.400Z,99.90
2017-07-28T05:53:42.103Z,99.90
2017-07-28T05:56:11.468Z,99.90
2017-07-28T05:58:40.756Z,99.90
2017-07-28T06:01:11.421Z,99.90
2017-07-28T06:03:41.139Z,99.90
2017-07-28T06:06:10.680Z,99.90
2017-07-28T06:08:40.037Z,99.90
2017-07-28T06:11:08.738Z,99.40
2017-07-28T06:13:38.485Z,99.00
2017-07-28T06:16:07.999Z,98.70
2017-07-28T06:18:36.404Z,98.70
2017-07-28T06:21:04.744Z,97.30
2017-07-28T06:23:33.384Z,97.30
2017-07-28T06:26:01.715Z,97.30
2017-07-28T06:28:30.059Z,96.40
2017-07-28T06:30:59.214Z,95.60
2017-07-28T06:33:27.545Z,95.60
2017-07-28T06:35:55.982Z,95.60
2017-07-28T06:38:24.644Z,95.40
2017-07-28T06:40:53.168Z,95.10
2017-07-28T06:43:22.462Z,94.90
2017-07-28T06:45:51.928Z,94.90
2017-07-28T06:48:20.446Z,95.20
2017-07-28T06:50:49.787Z,95.20
2017-07-28T06:53:18.805Z,95.20
2017-07-28T06:55:48.121Z,94.70
2017-07-28T06:58:16.620Z,94.70
2017-07-28T07:00:46.678Z,94.50
2017-07-28T07:03:16.302Z,94.00
2017-07-28T07:05:45.218Z,94.00
2017-07-28T07:08:14.119Z,93.80
2017-07-28T07:10:42.826Z,93.60
2017-07-28T07:13:11.517Z,93.10
2017-07-28T07:15:41.413Z,93.20
2017-07-28T07:18:10.741Z,93.40
2017-07-28T07:20:39.303Z,93.30
2017-07-28T07:23:08.243Z,93.30
2017-07-28T07:25:36.865Z,92.70
2017-07-28T07:28:05.213Z,92.80
2017-07-28T07:30:34.864Z,92.50
2017-07-28T07:33:03.176Z,92.40
2017-07-28T07:35:31.551Z,92.30
2017-07-28T07:38:00.111Z,92.20
2017-07-28T07:40:28.621Z,91.90
2017-07-28T07:42:56.949Z,92.00
2017-07-28T07:45:26.141Z,92.20
2017-07-28T07:47:54.868Z,92.40
2017-07-28T07:50:23.326Z,91.90
2017-07-28T07:52:53.335Z,91.60
2017-07-28T07:55:23.499Z,91.30
2017-07-28T07:57:52.158Z,91.60
2017-07-28T08:00:21.102Z,91.20
2017-07-28T08:02:49.644Z,91.00
2017-07-28T08:05:19.687Z,91.10
2017-07-28T08:07:48.994Z,91.00
2017-07-28T08:10:18.525Z,91.30
2017-07-28T08:12:47.352Z,91.00
2017-07-28T08:15:17.764Z,90.70
2017-07-28T08:17:46.602Z,90.70
2017-07-28T08:20:15.737Z,90.50
2017-07-28T08:22:46.667Z,91.00
2017-07-28T08:25:15.962Z,91.00
2017-07-28T08:27:44.873Z,91.10
2017-07-28T08:30:13.739Z,91.60
2017-07-28T08:32:42.499Z,91.60
2017-07-28T08:35:11.123Z,91.40
2017-07-28T08:37:41.052Z,91.70
2017-07-28T08:40:09.942Z,91.90
2017-07-28T08:42:39.686Z,91.40
2017-07-28T08:45:09.365Z,91.00
2017-07-28T08:47:38.750Z,90.80
2017-07-28T08:50:07.957Z,90.60
2017-07-28T08:52:36.815Z,91.00
2017-07-28T08:55:05.210Z,90.80
2017-07-28T08:57:33.772Z,90.80
2017-07-28T09:00:02.555Z,90.80
2017-07-28T09:02:30.871Z,91.00
2017-07-28T09:04:59.188Z,90.80
2017-07-28T09:07:27.970Z,90.20
2017-07-28T09:09:56.301Z,90.20
2017-07-28T09:12:24.881Z,89.70
2017-07-28T09:14:54.469Z,90.10
2017-07-28T09:17:22.776Z,90.20
2017-07-28T09:19:52.049Z,90.40
2017-07-28T09:22:21.897Z,90.40
2017-07-28T09:24:50.258Z,90.70
2017-07-28T09:27:20.100Z,90.90
2017-07-28T09:29:49.924Z,91.00
2017-07-28T09:32:18.625Z,90.70
2017-07-28T09:34:47.404Z,90.50
2017-07-28T09:37:16.332Z,90.20
2017-07-28T09:39:45.101Z,89.10
2017-07-28T09:42:14.947Z,88.70
2017-07-28T09:44:44.152Z,88.50
2017-07-28T09:47:12.816Z,88.30
2017-07-28T09:49:41.580Z,88.50
2017-07-28T09:52:11.483Z,88.90
2017-07-28T09:54:41.891Z,88.70
2017-07-28T09:57:11.971Z,85.40
2017-07-28T09:59:42.572Z,85.10
2017-07-28T10:02:12.687Z,85.00
2017-07-28T10:04:42.051Z,83.00
2017-07-28T10:07:11.426Z,81.70
2017-07-28T10:09:40.962Z,75.10
2017-07-28T10:12:11.348Z,75.10
2017-07-28T10:14:40.613Z,74.30
2017-07-28T10:17:09.407Z,76.50
2017-07-28T10:19:37.792Z,76.50
2017-07-28T10:22:07.115Z,75.10
2017-07-28T10:24:36.499Z,73.90
2017-07-28T10:27:04.837Z,72.90
2017-07-28T10:29:33.331Z,68.90
2017-07-28T10:32:01.640Z,67.50
2017-07-28T10:34:30.729Z,67.50
2017-07-28T10:36:59.401Z,67.50
2017-07-28T10:39:28.002Z,69.00
2017-07-28T10:41:56.612Z,70.60
2017-07-28T10:44:25.985Z,76.00
2017-07-28T10:46:54.430Z,75.80
2017-07-28T10:49:22.872Z,78.70
2017-07-28T10:51:51.543Z,79.70
2017-07-28T10:54:20.162Z,80.60
2017-07-28T10:56:48.765Z,80.70
2017-07-28T10:59:18.229Z,78.60
2017-07-28T11:01:46.779Z,78.60
2017-07-28T11:04:15.803Z,78.90
2017-07-28T11:06:44.759Z,80.80
2017-07-28T11:09:13.213Z,79.40
2017-07-28T11:11:42.721Z,74.70
2017-07-28T11:14:11.431Z,74.50
2017-07-28T11:16:40.632Z,75.10
2017-07-28T11:19:09.413Z,76.20
2017-07-28T11:21:38.407Z,77.30
2017-07-28T11:24:06.797Z,83.40
2017-07-28T11:26:35.134Z,83.80
2017-07-28T11:29:03.849Z,83.40
2017-07-28T11:31:32.200Z,85.00
2017-07-28T11:34:00.608Z,85.50
2017-07-28T11:36:29.265Z,88.60
2017-07-28T11:38:57.590Z,90.90
2017-07-28T11:41:25.985Z,91.90
2017-07-28T11:43:55.510Z,92.00
2017-07-28T11:46:23.969Z,92.10
2017-07-28T11:48:52.577Z,92.30
2017-07-28T11:51:21.753Z,92.50
2017-07-28T11:53:50.419Z,93.50
2017-07-28T11:56:18.911Z,95.70
2017-07-28T11:58:48.672Z,98.00
2017-07-28T12:01:17.398Z,99.90
2017-07-28T12:03:45.822Z,99.90
2017-07-28T12:06:16.019Z,99.90
2017-07-28T12:08:44.561Z,99.90
2017-07-28T12:11:13.305Z,99.90
2017-07-28T12:13:42.280Z,99.90
2017-07-28T12:16:10.985Z,99.90
2017-07-28T12:18:40.437Z,99.90
2017-07-28T12:21:09.990Z,99.90
2017-07-28T12:23:38.805Z,99.90
2017-07-28T12:26:07.986Z,99.90
2017-07-28T12:28:39.177Z,99.90
2017-07-28T12:31:07.866Z,99.00
2017-07-28T12:33:36.309Z,97.50
2017-07-28T12:36:05.765Z,95.20
2017-07-28T12:38:34.076Z,94.30
2017-07-28T12:41:02.493Z,92.50
2017-07-28T12:43:31.231Z,92.40
2017-07-28T12:45:59.608Z,92.40
2017-07-28T12:48:27.961Z,91.30
2017-07-28T12:50:57.109Z,91.10
2017-07-28T12:53:25.925Z,91.50
2017-07-28T12:55:54.560Z,90.90
2017-07-28T12:58:23.522Z,91.40
2017-07-28T13:00:52.189Z,90.70
2017-07-28T13:03:20.763Z,89.20
2017-07-28T13:05:49.790Z,88.50
2017-07-28T13:08:18.441Z,83.90
2017-07-28T13:10:46.977Z,87.20
2017-07-28T13:13:16.811Z,89.80
2017-07-28T13:15:46.335Z,86.90
2017-07-28T13:18:15.939Z,88.00
2017-07-28T13:20:44.998Z,88.00
2017-07-28T13:23:13.416Z,85.00
2017-07-28T13:25:42.329Z,84.20
2017-07-28T13:28:12.183Z,81.30
2017-07-28T13:30:41.079Z,81.30
2017-07-28T13:33:11.458Z,82.50
2017-07-28T13:35:40.672Z,84.70
2017-07-28T13:38:10.547Z,85.90
2017-07-28T13:40:39.072Z,85.80
2017-07-28T13:43:07.831Z,84.20
2017-07-28T13:45:36.214Z,81.20
2017-07-28T13:48:04.738Z,80.50
2017-07-28T13:50:33.329Z,82.30
2017-07-28T13:53:03.678Z,84.30
2017-07-28T13:55:31.980Z,85.10
2017-07-28T13:58:01.333Z,87.00
2017-07-28T14:00:30.430Z,89.10
2017-07-28T14:02:58.755Z,89.00
2017-07-28T14:05:27.494Z,87.90
2017-07-28T14:07:56.009Z,87.00
2017-07-28T14:10:24.539Z,83.30
2017-07-28T14:12:53.789Z,81.50
2017-07-28T14:15:22.337Z,82.70
2017-07-28T14:17:51.654Z,84.80
2017-07-28T14:20:20.475Z,84.70
2017-07-28T14:22:50.159Z,84.60
2017-07-28T14:25:18.986Z,85.10
2017-07-28T14:27:47.938Z,85.40
2017-07-28T14:30:16.471Z,86.10
2017-07-28T14:32:44.928Z,87.40
2017-07-28T14:35:14.290Z,88.90
2017-07-28T14:37:42.889Z,86.60
2017-07-28T14:40:11.499Z,84.20
2017-07-28T14:42:40.333Z,82.70
2017-07-28T14:45:08.711Z,82.80
2017-07-28T14:47:37.882Z,82.30
2017-07-28T14:50:07.252Z,82.30
2017-07-28T14:52:35.583Z,82.60
2017-07-28T14:55:03.906Z,83.50
2017-07-28T14:57:33.668Z,83.70
2017-07-28T15:00:02.025Z,84.30
2017-07-28T15:02:30.354Z,84.80
2017-07-28T15:04:59.996Z,90.00
2017-07-28T15:07:29.441Z,90.00
2017-07-28T15:09:57.779Z,90.80
2017-07-28T15:12:26.518Z,91.00
2017-07-28T15:14:54.912Z,90.40
2017-07-28T15:17:23.794Z,87.50
2017-07-28T15:19:54.725Z,87.20
2017-07-28T15:22:23.165Z,88.80
2017-07-28T15:24:52.838Z,90.00
2017-07-28T15:27:21.866Z,90.50
2017-07-28T15:29:50.443Z,90.80
2017-07-28T15:32:19.449Z,90.80
2017-07-28T15:34:49.229Z,90.50
2017-07-28T15:37:18.014Z,90.50
2017-07-28T15:39:46.987Z,89.10
2017-07-28T15:42:15.862Z,85.10
2017-07-28T15:44:44.612Z,81.20
2017-07-28T15:47:13.364Z,77.60
2017-07-28T15:49:42.528Z,74.80
2017-07-28T15:52:11.874Z,70.50
2017-07-28T15:54:41.370Z,66.10
2017-07-28T15:57:10.331Z,65.70
2017-07-28T15:59:38.639Z,68.00
2017-07-28T16:02:07.042Z,69.00
2017-07-28T16:04:36.161Z,69.20
2017-07-28T16:07:04.456Z,68.00
2017-07-28T16:09:32.789Z,65.20
2017-07-28T16:12:03.190Z,67.40
2017-07-28T16:14:31.504Z,65.30
2017-07-28T16:16:59.827Z,65.40
2017-07-28T16:19:28.195Z,63.30
2017-07-28T16:21:57.691Z,64.60
2017-07-28T16:24:26.058Z,63.50
2017-07-28T16:26:54.799Z,65.00
2017-07-28T16:29:23.411Z,67.30
2017-07-28T16:31:52.273Z,69.10
2017-07-28T16:34:21.699Z,70.60
2017-07-28T16:36:50.836Z,73.00
2017-07-28T16:39:19.336Z,73.00
2017-07-28T16:41:48.766Z,73.80
2017-07-28T16:44:17.236Z,74.50
2017-07-28T16:46:45.677Z,75.20
2017-07-28T16:49:14.763Z,75.70
2017-07-28T16:51:43.573Z,76.80
2017-07-28T16:54:12.414Z,78.10
2017-07-28T16:56:41.344Z,79.20
2017-07-28T16:59:10.712Z,91.30
2017-07-28T17:01:40.148Z,91.30
2017-07-28T17:04:09.380Z,92.90
2017-07-28T17:06:37.740Z,94.20
2017-07-28T17:09:06.108Z,97.00
2017-07-28T17:11:35.344Z,97.60
2017-07-28T17:14:03.657Z,98.50
2017-07-28T17:16:32.043Z,98.70
2017-07-28T17:19:01.333Z,98.00
2017-07-28T17:21:30.446Z,98.70
2017-07-28T17:23:59.000Z,98.60
2017-07-28T17:26:28.457Z,98.50
2017-07-28T17:28:56.785Z,98.40
2017-07-28T17:31:25.125Z,98.30
2017-07-28T17:33:53.638Z,98.40
2017-07-28T17:36:22.095Z,98.70
2017-07-28T17:38:50.692Z,98.80
2017-07-28T17:41:19.933Z,98.40
2017-07-28T17:43:48.416Z,98.40
2017-07-28T17:46:16.906Z,98.90
2017-07-28T17:48:45.854Z,98.20
2017-07-28T17:51:14.282Z,98.40
2017-07-28T17:53:42.869Z,98.60
2017-07-28T17:56:11.563Z,98.60
2017-07-28T17:58:40.921Z,99.20
2017-07-28T18:01:09.595Z,99.20
2017-07-28T18:03:37.995Z,99.50
2017-07-28T18:06:06.341Z,99.70
2017-07-28T18:08:34.669Z,99.90
2017-07-28T18:11:03.658Z,99.90
2017-07-28T18:13:31.981Z,99.80
2017-07-28T18:16:00.367Z,98.70
2017-07-28T18:18:29.083Z,98.00
2017-07-28T18:20:57.428Z,97.20
2017-07-28T18:23:25.828Z,97.10
2017-07-28T18:25:54.320Z,97.10
2017-07-28T18:28:23.433Z,96.40
2017-07-28T18:30:51.805Z,96.40
2017-07-28T18:33:20.585Z,95.80
2017-07-28T18:35:49.123Z,96.00
2017-07-28T18:38:17.762Z,96.20
2017-07-28T18:40:47.596Z,97.20
2017-07-28T18:43:16.307Z,97.20
2017-07-28T18:45:45.689Z,97.60
2017-07-28T18:48:14.319Z,97.60
2017-07-28T18:50:42.991Z,98.00
2017-07-28T18:53:11.420Z,98.50
2017-07-28T18:55:41.510Z,99.30
2017-07-28T18:58:11.056Z,99.50
2017-07-28T19:00:39.668Z,99.40
2017-07-28T19:03:09.265Z,99.90
2017-07-28T19:05:37.725Z,99.90
2017-07-28T19:08:07.369Z,99.90
2017-07-28T19:10:36.800Z,99.90
2017-07-28T19:13:05.176Z,99.90
2017-07-28T19:15:33.534Z,99.90
2017-07-28T19:18:02.454Z,99.90
2017-07-28T19:20:30.853Z,99.90
2017-07-28T19:22:59.249Z,99.90
2017-07-28T19:25:28.427Z,99.90
2017-07-28T19:27:57.946Z,99.90
2017-07-28T19:30:27.037Z,99.90
2017-07-28T19:32:55.988Z,99.90
2017-07-28T19:35:25.121Z,99.90
2017-07-28T19:37:53.485Z,99.90
2017-07-28T19:40:22.455Z,99.90
2017-07-28T19:42:50.885Z,99.90
2017-07-28T19:45:20.421Z,99.90
2017-07-28T19:47:49.348Z,99.90
2017-07-28T19:50:18.595Z,99.90
2017-07-28T19:52:48.653Z,99.90
2017-07-28T19:55:17.660Z,99.90
2017-07-28T19:57:46.156Z,99.90
2017-07-28T20:00:14.808Z,99.90
2017-07-28T20:02:44.501Z,99.90
2017-07-28T20:05:13.095Z,99.90
2017-07-28T20:07:41.656Z,99.90
2017-07-28T20:10:11.504Z,99.90
2017-07-28T20:12:41.271Z,99.90
2017-07-28T20:15:09.887Z,99.90
2017-07-28T20:17:39.078Z,99.90
2017-07-28T20:20:07.457Z,99.90
2017-07-28T20:22:35.830Z,99.90
2017-07-28T20:25:04.398Z,99.90
2017-07-28T20:27:32.715Z,99.90
2017-07-28T20:30:01.190Z,99.90
2017-07-28T20:32:31.603Z,99.90
2017-07-28T20:34:59.978Z,99.90
2017-07-28T20:37:28.308Z,99.90
2017-07-28T20:39:56.736Z,99.90
2017-07-28T20:42:25.095Z,99.90
2017-07-28T20:44:54.198Z,99.90
2017-07-28T20:47:24.563Z,99.90
2017-07-28T20:49:52.885Z,99.90
2017-07-28T20:52:21.212Z,99.90
2017-07-28T20:54:50.783Z,99.90
2017-07-28T20:57:19.378Z,99.90
2017-07-28T20:59:48.520Z,99.90
2017-07-28T21:02:17.312Z,99.90
2017-07-28T21:04:45.776Z,99.90
2017-07-28T21:07:16.231Z,99.90
2017-07-28T21:09:44.950Z,99.90
2017-07-28T21:12:13.537Z,99.90
2017-07-28T21:14:42.876Z,99.90
2017-07-28T21:17:11.469Z,99.90
2017-07-28T21:19:40.141Z,99.90
2017-07-28T21:22:08.691Z,99.90
2017-07-28T21:24:37.811Z,99.90
2017-07-28T21:27:06.161Z,99.90
2017-07-28T21:29:34.490Z,99.90
2017-07-28T21:32:04.620Z,99.90
2017-07-28T21:34:32.954Z,99.90
2017-07-28T21:37:01.264Z,99.90
2017-07-28T21:39:30.066Z,99.90
2017-07-28T21:41:58.385Z,99.90
2017-07-28T21:44:26.724Z,99.90
2017-07-28T21:46:56.564Z,99.90
2017-07-28T21:49:26.258Z,99.90
2017-07-28T21:51:55.119Z,99.90
2017-07-28T21:54:23.901Z,99.90
2017-07-28T21:56:52.223Z,99.90
2017-07-28T21:59:20.911Z,99.90
2017-07-28T22:01:49.665Z,99.90
2017-07-28T22:04:18.265Z,99.90
2017-07-28T22:06:46.763Z,99.90
2017-07-28T22:09:15.661Z,99.90
2017-07-28T22:11:44.237Z,99.90
2017-07-28T22:14:13.198Z,99.90
2017-07-28T22:16:42.654Z,99.90
2017-07-28T22:19:11.673Z,99.90
2017-07-28T22:21:40.393Z,99.90
2017-07-28T22:24:10.662Z,99.90
2017-07-28T22:26:39.167Z,99.90
2017-07-28T22:29:07.762Z,99.90
2017-07-28T22:31:37.121Z,99.90
2017-07-28T22:34:06.261Z,99.90
2017-07-28T22:36:34.597Z,99.90
2017-07-28T22:39:04.277Z,99.90
2017-07-28T22:41:32.625Z,99.90
2017-07-28T22:44:00.954Z,99.90
2017-07-28T22:46:31.900Z,99.90
2017-07-28T22:49:01.237Z,99.90
2017-07-28T22:51:29.582Z,99.90
2017-07-28T22:53:58.769Z,99.90
2017-07-28T22:56:27.156Z,99.90
2017-07-28T22:58:55.579Z,99.90
2017-07-28T23:01:24.353Z,99.90
2017-07-28T23:03:52.771Z,99.90
2017-07-28T23:06:21.222Z,99.90
2017-07-28T23:08:50.933Z,99.90
2017-07-28T23:11:19.423Z,99.90
2017-07-28T23:13:47.901Z,99.90
2017-07-28T23:16:16.689Z,99.90
2017-07-28T23:18:45.190Z,99.90
2017-07-28T23:21:13.918Z,99.90
2017-07-28T23:23:43.739Z,99.90
2017-07-28T23:26:13.359Z,99.90
2017-07-28T23:28:42.005Z,99.90
2017-07-28T23:31:11.587Z,99.90
2017-07-28T23:33:44.503Z,99.90
2017-07-28T23:36:15.718Z,99.90
2017-07-28T23:38:44.413Z,99.90
2017-07-28T23:41:12.853Z,99.90
2017-07-28T23:43:41.605Z,99.90
2017-07-28T23:46:10.272Z,99.90
2017-07-28T23:48:38.810Z,99.90
2017-07-28T23:51:07.774Z,99.90
2017-07-28T23:53:36.100Z,99.90
2017-07-28T23:56:04.455Z,99.90
2017-07-28T23:58:33.039Z,99.90
